createdAt,value
2023-04-10T00:00:52.728Z,96534.06
2023-04-10T00:06:14.719Z,96533.63
2023-04-10T00:11:36.722Z,96534.31
2023-04-10T00:16:58.831Z,96538.91
2023-04-10T00:22:20.715Z,96529.38
2023-04-10T00:27:42.711Z,96527.31
2023-04-10T00:33:04.732Z,96521.44
2023-04-10T00:38:26.707Z,96506.94
2023-04-10T00:43:48.703Z,96501.88
2023-04-10T00:49:03.773Z,96505.38
2023-04-10T00:54:25.714Z,96502.66
2023-04-10T00:59:47.692Z,96509.25
2023-04-10T01:05:09.699Z,96502.22
2023-04-10T01:10:44.702Z,96487.44
2023-04-10T01:16:19.733Z,96476.16
2023-04-10T01:21:42.698Z,96471.78
2023-04-10T01:27:22.707Z,96476.75
2023-04-10T01:32:46.703Z,96476.47
2023-04-10T01:38:11.705Z,96474.31
2023-04-10T01:43:35.684Z,96488.50
2023-04-10T01:48:59.787Z,96485.63
2023-04-10T01:54:22.710Z,96483.19
2023-04-10T01:59:44.715Z,96480.41
2023-04-10T02:05:06.763Z,96464.75
2023-04-10T02:10:41.691Z,96463.53
2023-04-10T02:16:13.685Z,96460.75
2023-04-10T02:21:35.677Z,96453.66
2023-04-10T02:26:58.726Z,96459.03
2023-04-10T02:32:20.711Z,96460.53
2023-04-10T02:37:42.655Z,96455.38
2023-04-10T02:43:04.680Z,96467.22
2023-04-10T02:48:26.683Z,96464.72
2023-04-10T02:53:50.668Z,96469.19
2023-04-10T02:59:17.672Z,96468.59
2023-04-10T03:04:39.689Z,96466.94
2023-04-10T03:10:01.650Z,96469.56
2023-04-10T03:15:30.655Z,96471.84
2023-04-10T03:20:52.651Z,96462.91
2023-04-10T03:26:14.664Z,96461.41
2023-04-10T03:31:36.689Z,96466.94
2023-04-10T03:36:58.673Z,96468.78
2023-04-10T03:42:20.644Z,96471.50
2023-04-10T03:47:47.700Z,96475.28
2023-04-10T03:53:09.662Z,96481.75
2023-04-10T03:58:32.665Z,96488.69
2023-04-10T04:03:54.968Z,96473.16
2023-04-10T04:09:36.656Z,96472.38
2023-04-10T04:15:09.631Z,96473.09
2023-04-10T04:20:39.655Z,96475.75
2023-04-10T04:26:31.634Z,96477.56
2023-04-10T04:32:20.722Z,96486.75
2023-04-10T04:37:47.652Z,96489.38
2023-04-10T04:43:29.635Z,96499.81
2023-04-10T04:49:13.663Z,96508.66
2023-04-10T04:54:58.666Z,96509.00
2023-04-10T05:00:35.616Z,96512.41
2023-04-10T05:06:20.639Z,96514.69
2023-04-10T05:11:48.615Z,96512.34
2023-04-10T05:17:33.666Z,96512.69
2023-04-10T05:23:13.624Z,96520.03
2023-04-10T05:28:45.622Z,96519.66
2023-04-10T05:34:23.624Z,96514.69
2023-04-10T05:40:01.603Z,96516.28
2023-04-10T05:45:41.644Z,96522.25
2023-04-10T05:51:13.609Z,96530.91
2023-04-10T05:56:54.622Z,96533.94
2023-04-10T06:02:19.771Z,96519.81
2023-04-10T06:07:41.614Z,96527.44
2023-04-10T06:13:03.625Z,96533.22
2023-04-10T06:18:25.588Z,96517.59
2023-04-10T06:23:47.595Z,96517.06
2023-04-10T06:29:09.608Z,96524.66
2023-04-10T06:34:31.625Z,96512.47
2023-04-10T06:39:56.617Z,96508.84
2023-04-10T06:45:18.596Z,96504.38
2023-04-10T06:50:40.603Z,96497.59
2023-04-10T06:56:03.590Z,96495.06
2023-04-10T07:01:26.492Z,96503.44
2023-04-10T07:06:48.601Z,96506.03
2023-04-10T07:12:10.594Z,96505.53
2023-04-10T07:17:32.616Z,96514.31
2023-04-10T07:22:54.573Z,96513.38
2023-04-10T07:28:16.606Z,96512.44
2023-04-10T07:33:38.601Z,96518.13
2023-04-10T07:39:00.626Z,96519.09
2023-04-10T07:44:22.632Z,96516.59
2023-04-10T07:49:44.584Z,96522.66
2023-04-10T07:55:11.598Z,96514.69
2023-04-10T08:00:33.629Z,96518.78
2023-04-10T08:05:55.623Z,96514.31
2023-04-10T08:11:20.630Z,96499.25
2023-04-10T08:16:43.614Z,96502.97
2023-04-10T08:22:05.599Z,96498.03
2023-04-10T08:27:27.585Z,96502.91
2023-04-10T08:32:49.610Z,96501.88
2023-04-10T08:38:14.032Z,96497.72
2023-04-10T08:43:36.563Z,96500.19
2023-04-10T08:49:12.588Z,96507.28
2023-04-10T08:54:40.562Z,96497.66
2023-04-10T09:00:09.609Z,96482.94
2023-04-10T09:05:42.569Z,96485.81
2023-04-10T09:11:04.586Z,96483.97
2023-04-10T09:16:42.601Z,96485.66
2023-04-10T09:22:04.590Z,96477.53
2023-04-10T09:27:42.573Z,96476.44
2023-04-10T09:33:04.641Z,96470.22
2023-04-10T09:38:32.599Z,96461.66
2023-04-10T09:43:54.839Z,96463.25
2023-04-10T09:49:16.570Z,96459.81
2023-04-10T09:54:44.601Z,96453.56
2023-04-10T10:00:08.584Z,96443.00
2023-04-10T10:05:34.544Z,96446.16
2023-04-10T10:11:01.589Z,96442.25
2023-04-10T10:16:36.599Z,96421.50
2023-04-10T10:21:58.580Z,96428.19
2023-04-10T10:27:23.615Z,96415.25
2023-04-10T10:32:46.629Z,96411.31
2023-04-10T10:38:08.620Z,96392.88
2023-04-10T10:44:08.586Z,96387.78
2023-04-10T10:49:30.590Z,96375.19
2023-04-10T11:00:15.652Z,96363.69
2023-04-10T11:05:59.574Z,96363.25
2023-04-10T11:11:31.571Z,96345.50
2023-04-10T11:17:01.675Z,96342.28
2023-04-10T11:22:23.558Z,96333.16
2023-04-10T11:27:55.579Z,96336.97
2023-04-10T11:33:25.587Z,96322.72
2023-04-10T11:38:47.552Z,96330.06
2023-04-10T11:44:14.528Z,96322.47
2023-04-10T11:49:39.507Z,96317.69
2023-04-10T11:55:01.531Z,96310.09
2023-04-10T12:00:23.543Z,96296.25
2023-04-10T12:05:54.558Z,96281.56
2023-04-10T12:11:16.552Z,96292.44
2023-04-10T12:16:39.514Z,96288.84
2023-04-10T12:22:02.516Z,96285.63
2023-04-10T12:27:33.523Z,96287.53
2023-04-10T12:33:03.568Z,96281.47
2023-04-10T12:38:51.531Z,96273.50
2023-04-10T12:44:25.530Z,96270.66
2023-04-10T12:49:47.503Z,96255.69
2023-04-10T12:55:22.503Z,96244.25
2023-04-10T13:00:44.503Z,96242.19
2023-04-10T13:06:06.514Z,96240.22
2023-04-10T13:11:29.511Z,96239.44
2023-04-10T13:16:58.529Z,96222.13
2023-04-10T13:22:20.492Z,96210.69
2023-04-10T13:27:42.494Z,96211.00
2023-04-10T13:33:04.543Z,96196.75
2023-04-10T13:38:26.496Z,96176.06
2023-04-10T13:43:48.511Z,96177.06
2023-04-10T13:49:10.536Z,96155.16
2023-04-10T13:54:33.495Z,96147.44
2023-04-10T13:59:55.509Z,96138.56
2023-04-10T14:05:27.513Z,96147.34
2023-04-10T14:10:49.534Z,96134.09
2023-04-10T14:16:18.524Z,96133.81
2023-04-10T14:21:40.531Z,96123.81
2023-04-10T14:27:04.495Z,96110.31
2023-04-10T14:32:26.593Z,96101.78
2023-04-10T14:37:48.524Z,96103.44
2023-04-10T14:43:10.491Z,96103.22
2023-04-10T14:48:32.555Z,96086.47
2023-04-10T14:53:54.736Z,96083.50
2023-04-10T14:59:16.478Z,96083.50
2023-04-10T15:04:38.578Z,96075.66
2023-04-10T15:10:00.510Z,96061.31
2023-04-10T15:15:37.500Z,96049.22
2023-04-10T15:20:59.504Z,96047.41
2023-04-10T15:26:28.526Z,96050.66
2023-04-10T15:31:50.483Z,96046.59
2023-04-10T15:37:12.493Z,96038.03
2023-04-10T15:42:34.488Z,96029.19
2023-04-10T15:47:59.539Z,96032.47
2023-04-10T15:53:21.514Z,96018.16
2023-04-10T15:58:43.469Z,96020.16
2023-04-10T16:04:05.698Z,96009.53
2023-04-10T16:09:27.472Z,96004.53
2023-04-10T16:14:49.492Z,96002.41
2023-04-10T16:20:11.504Z,95996.41
2023-04-10T16:25:34.512Z,95994.41
2023-04-10T16:30:56.471Z,95979.50
2023-04-10T16:36:18.485Z,95976.84
2023-04-10T16:41:40.500Z,95974.59
2023-04-10T16:47:02.512Z,95974.19
2023-04-10T16:52:26.479Z,95963.88
2023-04-10T16:57:49.483Z,95964.63
2023-04-10T17:03:14.547Z,95958.75
2023-04-10T17:08:36.472Z,95959.81
2023-04-10T17:13:59.494Z,95958.94
2023-04-10T17:19:21.478Z,95954.16
2023-04-10T17:24:43.490Z,95946.56
2023-04-10T17:30:05.491Z,95927.53
2023-04-10T17:35:27.469Z,95920.75
2023-04-10T17:40:49.466Z,95917.97
2023-04-10T17:46:11.476Z,95919.44
2023-04-10T17:51:34.511Z,95913.00
2023-04-10T17:56:56.514Z,95902.53
2023-04-10T18:02:18.510Z,95906.75
2023-04-10T18:07:40.467Z,95911.63
2023-04-10T18:13:05.462Z,95916.09
2023-04-10T18:18:34.472Z,95911.19
2023-04-10T18:23:56.488Z,95906.19
2023-04-10T18:29:18.472Z,95905.53
2023-04-10T18:34:40.472Z,95900.97
2023-04-10T18:40:09.860Z,95897.94
2023-04-10T18:45:39.458Z,95893.34
2023-04-10T18:51:07.473Z,95887.97
2023-04-10T18:56:29.472Z,95886.91
2023-04-10T19:01:51.543Z,95897.19
2023-04-10T19:07:13.445Z,95887.47
2023-04-10T19:12:35.442Z,95878.53
2023-04-10T19:18:07.494Z,95868.88
2023-04-10T19:23:29.452Z,95849.38
2023-04-10T19:28:51.479Z,95846.31
2023-04-10T19:34:17.456Z,95829.59
2023-04-10T19:39:39.457Z,95818.28
2023-04-10T19:45:01.467Z,95811.66
2023-04-10T19:50:23.450Z,95822.72
2023-04-10T19:55:46.468Z,95827.88
2023-04-10T20:01:09.516Z,95814.22
2023-04-10T20:06:32.455Z,95824.88
2023-04-10T20:11:54.446Z,95835.91
2023-04-10T20:17:16.446Z,95822.22
2023-04-10T20:22:38.448Z,95818.00
2023-04-10T20:28:00.436Z,95806.31
2023-04-10T20:33:22.446Z,95821.63
2023-04-10T20:38:44.440Z,95826.00
2023-04-10T20:44:06.418Z,95822.13
2023-04-10T20:49:29.430Z,95800.22
2023-04-10T20:54:51.432Z,95777.53
2023-04-10T21:00:13.454Z,95802.25
2023-04-10T21:05:35.440Z,95810.13
2023-04-10T21:10:57.421Z,95798.78
2023-04-10T21:16:19.448Z,95794.53
2023-04-10T21:21:41.432Z,95777.34
2023-04-10T21:27:03.435Z,95792.25
2023-04-10T21:32:25.439Z,95780.53
2023-04-10T21:37:47.455Z,95770.38
2023-04-10T21:43:10.423Z,95756.28
2023-04-10T21:48:32.408Z,95755.53
2023-04-10T21:53:54.439Z,95757.91
2023-04-10T21:59:16.413Z,95752.09
2023-04-10T22:04:47.832Z,95754.84
2023-04-10T22:10:15.427Z,95738.44
2023-04-10T22:15:37.406Z,95723.97
2023-04-10T22:20:59.425Z,95724.78
2023-04-10T22:26:21.425Z,95709.94
2023-04-10T22:31:43.455Z,95702.94
2023-04-10T22:37:05.418Z,95702.16
2023-04-10T22:42:28.364Z,95695.53
2023-04-10T22:47:51.400Z,95694.00
2023-04-10T22:53:13.425Z,95686.59
2023-04-10T22:58:35.403Z,95690.13
2023-04-10T23:04:00.469Z,95683.88
2023-04-10T23:09:22.417Z,95667.88
2023-04-10T23:14:44.397Z,95650.28
2023-04-10T23:20:06.388Z,95641.69
2023-04-10T23:25:28.398Z,95626.13
2023-04-10T23:30:50.448Z,95630.44
2023-04-10T23:36:12.394Z,95614.44
2023-04-10T23:41:34.423Z,95619.97
2023-04-10T23:46:56.444Z,95601.63
2023-04-10T23:52:18.388Z,95589.94
2023-04-10T23:57:40.404Z,95571.56
